地図

経路データ

SID SEASON NUMBER BASIN SUBBASIN NAME ISO_TIME NATURE LAT LON WMO_WIND WMO_PRES WMO_AGENCY TRACK_TYPE DIST2LAND LANDFALL IFLAG USA_AGENCY USA_ATCF_ID USA_LAT USA_LON USA_RECORD USA_STATUS USA_WIND USA_PRES USA_SSHS USA_R34_NE USA_R34_SE USA_R34_SW USA_R34_NW USA_R50_NE USA_R50_SE USA_R50_SW USA_R50_NW USA_R64_NE USA_R64_SE USA_R64_SW USA_R64_NW USA_POCI USA_ROCI USA_RMW USA_EYE TOKYO_LAT TOKYO_LON TOKYO_GRADE TOKYO_WIND TOKYO_PRES TOKYO_R50_DIR TOKYO_R50_LONG TOKYO_R50_SHORT TOKYO_R30_DIR TOKYO_R30_LONG TOKYO_R30_SHORT TOKYO_LAND CMA_LAT CMA_LON CMA_CAT CMA_WIND CMA_PRES HKO_LAT HKO_LON HKO_CAT HKO_WIND HKO_PRES NEWDELHI_LAT NEWDELHI_LON NEWDELHI_GRADE NEWDELHI_WIND NEWDELHI_PRES NEWDELHI_CI NEWDELHI_DP NEWDELHI_POCI REUNION_LAT REUNION_LON REUNION_TYPE REUNION_WIND REUNION_PRES REUNION_TNUM REUNION_CI REUNION_RMW REUNION_R34_NE REUNION_R34_SE REUNION_R34_SW REUNION_R34_NW REUNION_R50_NE REUNION_R50_SE REUNION_R50_SW REUNION_R50_NW REUNION_R64_NE REUNION_R64_SE REUNION_R64_SW REUNION_R64_NW BOM_LAT BOM_LON BOM_TYPE BOM_WIND BOM_PRES BOM_TNUM BOM_CI BOM_RMW BOM_R34_NE BOM_R34_SE BOM_R34_SW BOM_R34_NW BOM_R50_NE BOM_R50_SE BOM_R50_SW BOM_R50_NW BOM_R64_NE BOM_R64_SE BOM_R64_SW BOM_R64_NW BOM_ROCI BOM_POCI BOM_EYE BOM_POS_METHOD BOM_PRES_METHOD NADI_LAT NADI_LON NADI_CAT NADI_WIND NADI_PRES WELLINGTON_LAT WELLINGTON_LON WELLINGTON_WIND WELLINGTON_PRES DS824_LAT DS824_LON DS824_STAGE DS824_WIND DS824_PRES TD9636_LAT TD9636_LON TD9636_STAGE TD9636_WIND TD9636_PRES TD9635_LAT TD9635_LON TD9635_WIND TD9635_PRES TD9635_ROCI NEUMANN_LAT NEUMANN_LON NEUMANN_CLASS NEUMANN_WIND NEUMANN_PRES MLC_LAT MLC_LON MLC_CLASS MLC_WIND MLC_PRES USA_GUST BOM_GUST BOM_GUST_PER REUNION_GUST REUNION_GUST_PER USA_SEAHGT USA_SEARAD_NE USA_SEARAD_SE USA_SEARAD_SW USA_SEARAD_NW STORM_SPEED STORM_DIR
1936247N17128 1936 46 WP MM NOT_NAMED 1936-09-03 10:00:00 NR 17.3000 128.400 main 573 572 __________O___ -1 17.3000 128.400 2 17 314
1936247N17128 1936 46 WP MM NOT_NAMED 1936-09-03 12:00:00 NR 17.6848 127.982 main 572 536 __________P___ -1 17.6848 127.982 2 17 314
1936247N17128 1936 46 WP MM NOT_NAMED 1936-09-03 15:00:00 NR 18.2483 127.353 main 536 465 __________P___ -1 18.2483 127.353 2 16 313
1936247N17128 1936 46 WP MM NOT_NAMED 1936-09-03 18:00:00 NR 18.7782 126.726 main 465 409 __________P___ -1 18.7782 126.726 2 16 310
1936247N17128 1936 46 WP MM NOT_NAMED 1936-09-03 21:00:00 NR 19.2557 126.105 main 412 394 __________P___ -1 19.2557 126.105 2 15 309
1936247N17128 1936 46 WP MM NOT_NAMED 1936-09-03 22:00:00 NR 19.4000 125.900 main 394 362 __________O___ -1 19.4000 125.900 2 14 305
1936247N17128 1936 46 WP MM NOT_NAMED 1936-09-04 00:00:00 NR 19.6632 125.493 main 366 326 __________P___ -1 19.6632 125.493 2 14 302
1936247N17128 1936 46 WP MM NOT_NAMED 1936-09-04 03:00:00 NR 19.9960 124.884 main 326 290 __________P___ -1 19.9960 124.884 2 13 297
1936247N17128 1936 46 WP MM NOT_NAMED 1936-09-04 06:00:00 NR 20.2573 124.264 main 298 267 __________P___ -1 20.2573 124.264 2 13 291
1936247N17128 1936 46 WP MM NOT_NAMED 1936-09-04 09:00:00 NR 20.4503 123.622 main 271 261 __________P___ -1 20.4503 123.622 2 13 287
1936247N17128 1936 46 WP MM NOT_NAMED 1936-09-04 10:00:00 NR 20.5000 123.400 main 261 253 __________O___ -1 20.5000 123.400 2 13 283
1936247N17128 1936 46 WP MM NOT_NAMED 1936-09-04 12:00:00 NR 20.5949 122.939 main 253 190 __________P___ -1 20.5949 122.939 2 13 279
1936247N17128 1936 46 WP MM NOT_NAMED 1936-09-04 15:00:00 NR 20.6810 122.222 main 190 147 __________P___ -1 20.6810 122.222 2 14 275
1936247N17128 1936 46 WP MM NOT_NAMED 1936-09-04 18:00:00 NR 20.7133 121.488 main 147 134 __________P___ -1 20.7133 121.488 2 14 271
1936247N17128 1936 46 WP MM NOT_NAMED 1936-09-04 21:00:00 NR 20.7076 120.746 main 134 134 __________P___ -1 20.7076 120.746 2 14 269
1936247N17128 1936 46 WP MM NOT_NAMED 1936-09-04 22:00:00 NR 20.7000 120.500 main 135 135 __________O___ -1 20.7000 120.500 2 14 270
1936247N17128 1936 46 WP MM NOT_NAMED 1936-09-05 00:00:00 NR 20.7072 120.017 main 152 152 __________P___ -1 20.7072 120.017 2 14 270
1936247N17128 1936 46 WP MM NOT_NAMED 1936-09-05 03:00:00 NR 20.6936 119.292 main 197 197 __________P___ -1 20.6936 119.292 2 14 267
1936247N17128 1936 46 WP MM NOT_NAMED 1936-09-05 06:00:00 NR 20.6426 118.567 main 261 270 __________P___ -1 20.6426 118.567 2 14 264
1936247N17128 1936 46 WP MM NOT_NAMED 1936-09-05 09:00:00 NR 20.5447 117.842 main 300 291 __________P___ -1 20.5447 117.842 2 14 261
1936247N17128 1936 46 WP MM NOT_NAMED 1936-09-05 10:00:00 NR 20.5000 117.600 main 291 283 __________O___ -1 20.5000 117.600 2 14 256
1936247N17128 1936 46 WP MM NOT_NAMED 1936-09-05 12:00:00 NR 20.3786 117.124 main 286 284 __________P___ -1 20.3786 117.124 2 14 253
1936247N17128 1936 46 WP MM NOT_NAMED 1936-09-05 15:00:00 NR 20.1526 116.410 main 286 292 __________P___ -1 20.1526 116.410 2 14 251
1936247N17128 1936 46 WP MM NOT_NAMED 1936-09-05 18:00:00 NR 19.9048 115.689 main 302 294 __________P___ -1 19.9048 115.689 2 15 251
1936247N17128 1936 46 WP MM NOT_NAMED 1936-09-05 21:00:00 NR 19.6697 114.951 main 299 297 __________P___ -1 19.6697 114.951 2 15 252
1936247N17128 1936 46 WP MM NOT_NAMED 1936-09-05 22:00:00 NR 19.6000 114.700 main 304 295 __________O___ -1 19.6000 114.700 2 15 254
1936247N17128 1936 46 WP MM NOT_NAMED 1936-09-06 00:00:00 NR 19.4671 114.186 main 295 253 __________P___ -1 19.4671 114.186 2 15 256
1936247N17128 1936 46 WP MM NOT_NAMED 1936-09-06 03:00:00 NR 19.2927 113.396 main 253 173 __________P___ -1 19.2927 113.396 2 15 259
1936247N17128 1936 46 WP MM NOT_NAMED 1936-09-06 06:00:00 NR 19.1650 112.590 main 173 100 __________P___ -1 19.1650 112.590 2 15 263
1936247N17128 1936 46 WP MM NOT_NAMED 1936-09-06 09:00:00 NR 19.1029 111.773 main 100 76 __________P___ -1 19.1029 111.773 2 15 266
1936247N17128 1936 46 WP MM NOT_NAMED 1936-09-06 10:00:00 NR 19.1000 111.500 main 76 33 __________O___ -1 19.1000 111.500 2 16 271
1936247N17128 1936 46 WP MM NOT_NAMED 1936-09-06 12:00:00 NR 19.1216 110.910 main 33 0 __________P___ -1 19.1216 110.910 2 17 275
1936247N17128 1936 46 WP MM NOT_NAMED 1936-09-06 15:00:00 NR 19.2170 110.016 main 0 0 __________P___ -1 19.2170 110.016 2 17 278
1936247N17128 1936 46 WP MM NOT_NAMED 1936-09-06 18:00:00 NR 19.3647 109.165 main 0 0 __________P___ -1 19.3647 109.165 2 15 282
1936247N17128 1936 46 WP MM NOT_NAMED 1936-09-06 21:00:00 NR 19.5398 108.416 main 30 30 __________P___ -1 19.5398 108.416 2 14 284
1936247N17128 1936 46 WP MM NOT_NAMED 1936-09-06 22:00:00 NR 19.6000 108.200 main 53 53 __________O___ -1 19.6000 108.200 2 11 287
1936247N17128 1936 46 WP MM NOT_NAMED 1936-09-07 00:00:00 NR 19.7009 107.849 main 95 94 __________P___ -1 19.7009 107.849 2 9 290
1936247N17128 1936 46 WP MM NOT_NAMED 1936-09-07 03:00:00 NR 19.8662 107.437 main 94 62 __________P___ -1 19.8662 107.437 2 8 296
1936247N17128 1936 46 WP MM NOT_NAMED 1936-09-07 06:00:00 NR 20.0456 107.109 main 62 23 __________P___ -1 20.0456 107.109 2 7 302
1936247N17128 1936 46 WP MM NOT_NAMED 1936-09-07 09:00:00 NR 20.2352 106.806 main 23 10 __________P___ -1 20.2352 106.806 2 7 304
1936247N17128 1936 46 WP MM NOT_NAMED 1936-09-07 10:00:00 NR 20.3000 106.700 main 10 0 __________O___ -1 20.3000 106.700 2 7 302
1936247N17128 1936 46 WP MM NOT_NAMED 1936-09-07 12:00:00 NR 20.4310 106.471 main 0 0 __________P___ -1 20.4310 106.471 2 8 300
1936247N17128 1936 46 WP MM NOT_NAMED 1936-09-07 15:00:00 NR 20.6302 106.091 main 0 0 __________P___ -1 20.6302 106.091 2 8 298
1936247N17128 1936 46 WP MM NOT_NAMED 1936-09-07 18:00:00 NR 20.8313 105.678 main 0 0 __________P___ -1 20.8313 105.678 2 9 297
1936247N17128 1936 46 WP MM NOT_NAMED 1936-09-07 21:00:00 NR 21.0329 105.246 main 0 0 __________P___ -1 21.0329 105.246 2 9 296
1936247N17128 1936 46 WP MM NOT_NAMED 1936-09-07 22:00:00 NR 21.1000 105.100 main 0 __________O___ -1 21.1000 105.100 2 9 296

デジタル台風データ・検索

IBTrACS Databaseについて

本データベースは、米国NOAAが公開する1842年以降の世界の熱帯低気圧のベストトラックデータアーカイブInternational Best Track Archive for Climate Stewardship (IBTrACS)を、ウェブで閲覧しやすい形式に変換したものです。

最終更新日:2021-11-26